sensor_id;sensor_type;location;lat;lon;timestamp;temperature;humidity
23991;DHT22;12205;50.600;4.608;2024-02-23T00:00:27;5.10;99.90
23991;DHT22;12205;50.600;4.608;2024-02-23T00:02:54;5.10;99.90
23991;DHT22;12205;50.600;4.608;2024-02-23T00:05:23;5.10;99.90
23991;DHT22;12205;50.600;4.608;2024-02-23T00:07:50;5.10;99.90
23991;DHT22;12205;50.600;4.608;2024-02-23T00:10:18;5.10;99.90
23991;DHT22;12205;50.600;4.608;2024-02-23T00:12:45;5.20;99.90
23991;DHT22;12205;50.600;4.608;2024-02-23T00:15:13;5.10;99.90
23991;DHT22;12205;50.600;4.608;2024-02-23T00:17:40;5.20;99.90
23991;DHT22;12205;50.600;4.608;2024-02-23T00:20:09;5.20;99.90
23991;DHT22;12205;50.600;4.608;2024-02-23T00:22:37;5.00;99.90
23991;DHT22;12205;50.600;4.608;2024-02-23T00:25:04;5.10;99.90
23991;DHT22;12205;50.600;4.608;2024-02-23T00:27:33;5.00;99.90
23991;DHT22;12205;50.600;4.608;2024-02-23T00:30:00;5.00;99.90
23991;DHT22;12205;50.600;4.608;2024-02-23T00:32:26;5.10;99.90
23991;DHT22;12205;50.600;4.608;2024-02-23T00:34:53;5.20;99.90
23991;DHT22;12205;50.600;4.608;2024-02-23T00:37:20;5.20;99.90
23991;DHT22;12205;50.600;4.608;2024-02-23T00:39:47;5.20;99.90
23991;DHT22;12205;50.600;4.608;2024-02-23T00:42:14;5.30;99.90
23991;DHT22;12205;50.600;4.608;2024-02-23T00:44:43;5.40;99.90
23991;DHT22;12205;50.600;4.608;2024-02-23T00:47:09;5.30;99.90
23991;DHT22;12205;50.600;4.608;2024-02-23T00:49:36;5.30;99.90
23991;DHT22;12205;50.600;4.608;2024-02-23T00:52:04;5.30;99.90
23991;DHT22;12205;50.600;4.608;2024-02-23T00:54:31;5.40;99.90
23991;DHT22;12205;50.600;4.608;2024-02-23T00:56:57;5.40;99.90
23991;DHT22;12205;50.600;4.608;2024-02-23T00:59:24;5.60;99.90
23991;DHT22;12205;50.600;4.608;2024-02-23T01:01:54;5.60;99.90
23991;DHT22;12205;50.600;4.608;2024-02-23T01:04:21;5.50;99.90
23991;DHT22;12205;50.600;4.608;2024-02-23T01:06:47;5.50;99.90
23991;DHT22;12205;50.600;4.608;2024-02-23T01:09:14;5.40;99.90
23991;DHT22;12205;50.600;4.608;2024-02-23T01:11:42;5.40;99.90
23991;DHT22;12205;50.600;4.608;2024-02-23T01:14:09;5.30;99.90
23991;DHT22;12205;50.600;4.608;2024-02-23T01:16:36;5.30;99.90
23991;DHT22;12205;50.600;4.608;2024-02-23T01:19:04;5.50;99.90
23991;DHT22;12205;50.600;4.608;2024-02-23T01:21:31;5.50;99.90
23991;DHT22;12205;50.600;4.608;2024-02-23T01:23:58;5.50;99.90
23991;DHT22;12205;50.600;4.608;2024-02-23T01:26:26;5.40;99.90
23991;DHT22;12205;50.600;4.608;2024-02-23T01:28:53;5.40;99.90
23991;DHT22;12205;50.600;4.608;2024-02-23T01:31:20;5.30;99.90
23991;DHT22;12205;50.600;4.608;2024-02-23T01:33:47;5.40;99.90
23991;DHT22;12205;50.600;4.608;2024-02-23T01:36:16;5.40;99.90
23991;DHT22;12205;50.600;4.608;2024-02-23T01:38:43;5.20;99.90
23991;DHT22;12205;50.600;4.608;2024-02-23T01:41:10;5.30;99.90
23991;DHT22;12205;50.600;4.608;2024-02-23T01:43:37;5.40;99.90
23991;DHT22;12205;50.600;4.608;2024-02-23T01:46:05;5.30;99.90
23991;DHT22;12205;50.600;4.608;2024-02-23T01:48:32;5.30;99.90
23991;DHT22;12205;50.600;4.608;2024-02-23T01:51:00;5.50;99.90
23991;DHT22;12205;50.600;4.608;2024-02-23T01:53:28;5.60;99.90
23991;DHT22;12205;50.600;4.608;2024-02-23T01:55:56;5.50;99.90
23991;DHT22;12205;50.600;4.608;2024-02-23T01:58:24;5.50;99.90
23991;DHT22;12205;50.600;4.608;2024-02-23T02:00:51;5.60;99.90
23991;DHT22;12205;50.600;4.608;2024-02-23T02:03:18;5.40;99.90
23991;DHT22;12205;50.600;4.608;2024-02-23T02:05:45;5.60;99.90
23991;DHT22;12205;50.600;4.608;2024-02-23T02:08:12;5.60;99.90
23991;DHT22;12205;50.600;4.608;2024-02-23T02:10:40;5.80;99.90
23991;DHT22;12205;50.600;4.608;2024-02-23T02:13:08;5.80;99.90
23991;DHT22;12205;50.600;4.608;2024-02-23T02:15:35;5.60;99.90
23991;DHT22;12205;50.600;4.608;2024-02-23T02:18:02;5.50;99.90
23991;DHT22;12205;50.600;4.608;2024-02-23T02:20:32;5.60;99.90
23991;DHT22;12205;50.600;4.608;2024-02-23T02:22:59;5.60;99.90
23991;DHT22;12205;50.600;4.608;2024-02-23T02:25:26;5.60;99.90
23991;DHT22;12205;50.600;4.608;2024-02-23T02:27:55;5.60;99.90
23991;DHT22;12205;50.600;4.608;2024-02-23T02:30:21;5.70;99.90
23991;DHT22;12205;50.600;4.608;2024-02-23T02:32:48;5.70;99.90
23991;DHT22;12205;50.600;4.608;2024-02-23T02:35:15;5.60;99.90
23991;DHT22;12205;50.600;4.608;2024-02-23T02:37:42;5.50;99.90
23991;DHT22;12205;50.600;4.608;2024-02-23T02:40:09;5.60;99.90
23991;DHT22;12205;50.600;4.608;2024-02-23T02:42:36;5.60;99.90
23991;DHT22;12205;50.600;4.608;2024-02-23T02:45:05;5.60;99.90
23991;DHT22;12205;50.600;4.608;2024-02-23T02:47:32;5.60;99.90
23991;DHT22;12205;50.600;4.608;2024-02-23T02:49:59;5.70;99.90
23991;DHT22;12205;50.600;4.608;2024-02-23T02:52:26;5.70;99.90
23991;DHT22;12205;50.600;4.608;2024-02-23T02:54:54;5.60;99.90
23991;DHT22;12205;50.600;4.608;2024-02-23T02:57:21;5.60;99.90
23991;DHT22;12205;50.600;4.608;2024-02-23T02:59:47;5.60;99.90
23991;DHT22;12205;50.600;4.608;2024-02-23T03:02:17;5.70;99.90
23991;DHT22;12205;50.600;4.608;2024-02-23T03:04:47;5.60;99.90
23991;DHT22;12205;50.600;4.608;2024-02-23T03:07:14;5.70;99.90
23991;DHT22;12205;50.600;4.608;2024-02-23T03:09:41;5.70;99.90
23991;DHT22;12205;50.600;4.608;2024-02-23T03:12:08;5.80;99.90
23991;DHT22;12205;50.600;4.608;2024-02-23T03:14:35;5.70;99.90
23991;DHT22;12205;50.600;4.608;2024-02-23T03:17:03;5.60;99.90
23991;DHT22;12205;50.600;4.608;2024-02-23T03:19:32;5.70;99.90
23991;DHT22;12205;50.600;4.608;2024-02-23T03:21:59;5.90;99.90
23991;DHT22;12205;50.600;4.608;2024-02-23T03:24:26;5.70;99.90
23991;DHT22;12205;50.600;4.608;2024-02-23T03:26:52;5.70;99.90
23991;DHT22;12205;50.600;4.608;2024-02-23T03:29:20;5.80;99.90
23991;DHT22;12205;50.600;4.608;2024-02-23T03:31:49;5.80;99.90
23991;DHT22;12205;50.600;4.608;2024-02-23T03:34:16;5.80;99.90
23991;DHT22;12205;50.600;4.608;2024-02-23T03:36:44;5.80;99.90
23991;DHT22;12205;50.600;4.608;2024-02-23T03:39:11;5.70;99.90
23991;DHT22;12205;50.600;4.608;2024-02-23T03:41:38;5.80;99.90
23991;DHT22;12205;50.600;4.608;2024-02-23T03:44:05;5.90;99.90
23991;DHT22;12205;50.600;4.608;2024-02-23T03:46:33;5.80;99.90
23991;DHT22;12205;50.600;4.608;2024-02-23T03:49:00;5.80;99.90
23991;DHT22;12205;50.600;4.608;2024-02-23T03:51:27;5.80;99.90
23991;DHT22;12205;50.600;4.608;2024-02-23T03:53:55;5.90;99.90
23991;DHT22;12205;50.600;4.608;2024-02-23T03:56:22;5.80;99.90
23991;DHT22;12205;50.600;4.608;2024-02-23T03:58:49;5.70;99.90
23991;DHT22;12205;50.600;4.608;2024-02-23T04:01:16;5.70;99.90
23991;DHT22;12205;50.600;4.608;2024-02-23T04:03:43;5.70;99.90
23991;DHT22;12205;50.600;4.608;2024-02-23T04:06:10;5.70;99.90
23991;DHT22;12205;50.600;4.608;2024-02-23T04:08:36;5.60;99.90
23991;DHT22;12205;50.600;4.608;2024-02-23T04:11:05;5.60;99.90
23991;DHT22;12205;50.600;4.608;2024-02-23T04:13:32;5.80;99.90
23991;DHT22;12205;50.600;4.608;2024-02-23T04:16:00;5.90;99.90
23991;DHT22;12205;50.600;4.608;2024-02-23T04:18:28;6.00;99.90
23991;DHT22;12205;50.600;4.608;2024-02-23T04:20:55;6.10;99.90
23991;DHT22;12205;50.600;4.608;2024-02-23T04:23:22;6.00;99.90
23991;DHT22;12205;50.600;4.608;2024-02-23T04:25:49;6.10;99.90
23991;DHT22;12205;50.600;4.608;2024-02-23T04:28:17;6.00;99.90
23991;DHT22;12205;50.600;4.608;2024-02-23T04:30:44;5.80;99.90
23991;DHT22;12205;50.600;4.608;2024-02-23T04:33:11;5.80;99.90
23991;DHT22;12205;50.600;4.608;2024-02-23T04:35:38;5.70;99.90
23991;DHT22;12205;50.600;4.608;2024-02-23T04:38:05;5.80;99.90
23991;DHT22;12205;50.600;4.608;2024-02-23T04:40:32;5.90;99.90
23991;DHT22;12205;50.600;4.608;2024-02-23T04:42:59;6.00;99.90
23991;DHT22;12205;50.600;4.608;2024-02-23T04:45:27;5.90;99.90
23991;DHT22;12205;50.600;4.608;2024-02-23T04:47:54;6.10;99.90
23991;DHT22;12205;50.600;4.608;2024-02-23T04:50:21;5.90;99.90
23991;DHT22;12205;50.600;4.608;2024-02-23T04:52:48;5.90;99.90
23991;DHT22;12205;50.600;4.608;2024-02-23T04:55:15;5.80;99.90
23991;DHT22;12205;50.600;4.608;2024-02-23T04:57:42;6.00;99.90
23991;DHT22;12205;50.600;4.608;2024-02-23T05:00:10;6.10;99.90
23991;DHT22;12205;50.600;4.608;2024-02-23T05:02:39;5.80;99.90
23991;DHT22;12205;50.600;4.608;2024-02-23T05:05:06;5.90;99.90
23991;DHT22;12205;50.600;4.608;2024-02-23T05:07:34;5.90;99.90
23991;DHT22;12205;50.600;4.608;2024-02-23T05:10:01;6.00;99.90
23991;DHT22;12205;50.600;4.608;2024-02-23T05:12:29;6.00;99.90
23991;DHT22;12205;50.600;4.608;2024-02-23T05:14:56;6.20;99.90
23991;DHT22;12205;50.600;4.608;2024-02-23T05:17:23;6.30;99.90
23991;DHT22;12205;50.600;4.608;2024-02-23T05:19:51;6.10;99.90
23991;DHT22;12205;50.600;4.608;2024-02-23T05:22:18;5.80;99.90
23991;DHT22;12205;50.600;4.608;2024-02-23T05:24:45;6.00;99.90
23991;DHT22;12205;50.600;4.608;2024-02-23T05:27:12;6.00;99.90
23991;DHT22;12205;50.600;4.608;2024-02-23T05:29:39;6.10;99.90
23991;DHT22;12205;50.600;4.608;2024-02-23T05:32:06;6.10;99.90
23991;DHT22;12205;50.600;4.608;2024-02-23T05:34:33;6.20;99.90
23991;DHT22;12205;50.600;4.608;2024-02-23T05:37:02;5.90;99.90
23991;DHT22;12205;50.600;4.608;2024-02-23T05:39:29;6.20;99.90
23991;DHT22;12205;50.600;4.608;2024-02-23T05:41:57;6.30;99.90
23991;DHT22;12205;50.600;4.608;2024-02-23T05:44:25;6.00;99.90
23991;DHT22;12205;50.600;4.608;2024-02-23T05:46:52;6.10;99.90
23991;DHT22;12205;50.600;4.608;2024-02-23T05:49:19;6.10;99.90
23991;DHT22;12205;50.600;4.608;2024-02-23T05:51:46;6.00;99.90
23991;DHT22;12205;50.600;4.608;2024-02-23T05:54:14;6.10;99.90
23991;DHT22;12205;50.600;4.608;2024-02-23T05:56:41;6.00;99.90
23991;DHT22;12205;50.600;4.608;2024-02-23T05:59:08;6.00;99.90
23991;DHT22;12205;50.600;4.608;2024-02-23T06:01:34;6.00;99.90
23991;DHT22;12205;50.600;4.608;2024-02-23T06:04:01;5.70;99.90
23991;DHT22;12205;50.600;4.608;2024-02-23T06:06:28;5.90;99.90
23991;DHT22;12205;50.600;4.608;2024-02-23T06:08:56;5.90;99.90
23991;DHT22;12205;50.600;4.608;2024-02-23T06:11:25;6.00;99.90
23991;DHT22;12205;50.600;4.608;2024-02-23T06:13:51;6.10;99.90
23991;DHT22;12205;50.600;4.608;2024-02-23T06:16:18;6.10;99.90
23991;DHT22;12205;50.600;4.608;2024-02-23T06:18:45;6.10;99.90
23991;DHT22;12205;50.600;4.608;2024-02-23T06:21:13;6.10;99.90
23991;DHT22;12205;50.600;4.608;2024-02-23T06:23:40;6.00;99.90
23991;DHT22;12205;50.600;4.608;2024-02-23T06:26:07;6.20;99.90
23991;DHT22;12205;50.600;4.608;2024-02-23T06:28:36;6.30;99.90
23991;DHT22;12205;50.600;4.608;2024-02-23T06:31:05;6.40;99.90
23991;DHT22;12205;50.600;4.608;2024-02-23T06:33:32;6.20;99.90
23991;DHT22;12205;50.600;4.608;2024-02-23T06:35:59;6.20;99.90
23991;DHT22;12205;50.600;4.608;2024-02-23T06:38:26;6.30;99.90
23991;DHT22;12205;50.600;4.608;2024-02-23T06:40:54;6.20;99.90
23991;DHT22;12205;50.600;4.608;2024-02-23T06:43:22;6.30;99.90
23991;DHT22;12205;50.600;4.608;2024-02-23T06:45:50;6.30;99.90
23991;DHT22;12205;50.600;4.608;2024-02-23T06:48:17;6.50;99.90
23991;DHT22;12205;50.600;4.608;2024-02-23T06:50:44;6.80;99.90
23991;DHT22;12205;50.600;4.608;2024-02-23T06:53:11;6.60;99.90
23991;DHT22;12205;50.600;4.608;2024-02-23T06:55:38;6.50;99.90
23991;DHT22;12205;50.600;4.608;2024-02-23T06:58:05;6.60;99.90
23991;DHT22;12205;50.600;4.608;2024-02-23T07:00:33;6.40;99.90
23991;DHT22;12205;50.600;4.608;2024-02-23T07:03:02;6.70;99.90
23991;DHT22;12205;50.600;4.608;2024-02-23T07:05:29;6.60;99.90
23991;DHT22;12205;50.600;4.608;2024-02-23T07:07:56;6.50;99.90
23991;DHT22;12205;50.600;4.608;2024-02-23T07:10:23;6.40;99.90
23991;DHT22;12205;50.600;4.608;2024-02-23T07:12:51;6.50;99.90
23991;DHT22;12205;50.600;4.608;2024-02-23T07:15:19;6.40;99.90
23991;DHT22;12205;50.600;4.608;2024-02-23T07:17:46;6.30;99.90
23991;DHT22;12205;50.600;4.608;2024-02-23T07:20:15;6.20;99.90
23991;DHT22;12205;50.600;4.608;2024-02-23T07:22:43;6.30;99.90
23991;DHT22;12205;50.600;4.608;2024-02-23T07:25:11;6.30;99.90
23991;DHT22;12205;50.600;4.608;2024-02-23T07:27:38;6.30;99.90
23991;DHT22;12205;50.600;4.608;2024-02-23T07:30:06;6.10;99.90
23991;DHT22;12205;50.600;4.608;2024-02-23T07:32:33;6.30;99.90
23991;DHT22;12205;50.600;4.608;2024-02-23T07:35:00;6.30;99.90
23991;DHT22;12205;50.600;4.608;2024-02-23T07:37:30;6.40;99.90
23991;DHT22;12205;50.600;4.608;2024-02-23T07:39:57;6.40;99.90
23991;DHT22;12205;50.600;4.608;2024-02-23T07:42:24;6.20;99.90
23991;DHT22;12205;50.600;4.608;2024-02-23T07:44:51;6.30;99.90
23991;DHT22;12205;50.600;4.608;2024-02-23T07:47:18;6.40;99.90
23991;DHT22;12205;50.600;4.608;2024-02-23T07:49:45;6.30;99.90
23991;DHT22;12205;50.600;4.608;2024-02-23T07:52:12;6.40;99.90
23991;DHT22;12205;50.600;4.608;2024-02-23T07:54:40;6.40;99.90
23991;DHT22;12205;50.600;4.608;2024-02-23T07:57:07;6.40;99.90
23991;DHT22;12205;50.600;4.608;2024-02-23T07:59:34;6.30;99.90
23991;DHT22;12205;50.600;4.608;2024-02-23T08:02:01;6.30;99.90
23991;DHT22;12205;50.600;4.608;2024-02-23T08:04:28;6.50;99.90
23991;DHT22;12205;50.600;4.608;2024-02-23T08:06:55;6.40;99.90
23991;DHT22;12205;50.600;4.608;2024-02-23T08:09:22;6.60;99.90
23991;DHT22;12205;50.600;4.608;2024-02-23T08:11:51;6.50;99.90
23991;DHT22;12205;50.600;4.608;2024-02-23T08:14:18;6.40;99.90
23991;DHT22;12205;50.600;4.608;2024-02-23T08:16:45;5.70;99.90
23991;DHT22;12205;50.600;4.608;2024-02-23T08:19:12;5.50;99.90
23991;DHT22;12205;50.600;4.608;2024-02-23T08:21:39;5.40;99.90
23991;DHT22;12205;50.600;4.608;2024-02-23T08:24:07;5.50;99.90
23991;DHT22;12205;50.600;4.608;2024-02-23T08:26:34;5.70;99.90
23991;DHT22;12205;50.600;4.608;2024-02-23T08:29:05;5.80;99.90
23991;DHT22;12205;50.600;4.608;2024-02-23T08:31:32;5.80;99.90
23991;DHT22;12205;50.600;4.608;2024-02-23T08:33:58;5.50;99.90
23991;DHT22;12205;50.600;4.608;2024-02-23T08:36:25;5.50;99.90
23991;DHT22;12205;50.600;4.608;2024-02-23T08:38:52;5.70;99.90
23991;DHT22;12205;50.600;4.608;2024-02-23T08:41:19;5.70;99.90
23991;DHT22;12205;50.600;4.608;2024-02-23T08:43:46;5.60;99.90
23991;DHT22;12205;50.600;4.608;2024-02-23T08:46:14;5.60;99.90
23991;DHT22;12205;50.600;4.608;2024-02-23T08:48:41;5.60;99.90
23991;DHT22;12205;50.600;4.608;2024-02-23T08:51:08;5.70;99.90
23991;DHT22;12205;50.600;4.608;2024-02-23T08:53:35;5.80;99.90
23991;DHT22;12205;50.600;4.608;2024-02-23T08:56:02;5.90;99.90
23991;DHT22;12205;50.600;4.608;2024-02-23T08:58:30;5.90;99.90
23991;DHT22;12205;50.600;4.608;2024-02-23T09:00:56;5.70;99.90
23991;DHT22;12205;50.600;4.608;2024-02-23T09:03:25;5.70;99.90
23991;DHT22;12205;50.600;4.608;2024-02-23T09:05:52;5.80;99.90
23991;DHT22;12205;50.600;4.608;2024-02-23T09:08:18;5.50;99.90
23991;DHT22;12205;50.600;4.608;2024-02-23T09:10:45;5.50;99.90
23991;DHT22;12205;50.600;4.608;2024-02-23T09:13:12;5.50;99.90
23991;DHT22;12205;50.600;4.608;2024-02-23T09:15:41;5.60;99.90
23991;DHT22;12205;50.600;4.608;2024-02-23T09:18:08;5.70;99.90
23991;DHT22;12205;50.600;4.608;2024-02-23T09:20:36;5.80;99.90
23991;DHT22;12205;50.600;4.608;2024-02-23T09:23:04;6.00;99.90
23991;DHT22;12205;50.600;4.608;2024-02-23T09:25:30;5.90;99.90
23991;DHT22;12205;50.600;4.608;2024-02-23T09:27:58;6.20;99.90
23991;DHT22;12205;50.600;4.608;2024-02-23T09:30:25;6.20;99.90
23991;DHT22;12205;50.600;4.608;2024-02-23T09:32:51;6.40;99.90
23991;DHT22;12205;50.600;4.608;2024-02-23T09:35:18;6.30;99.90
23991;DHT22;12205;50.600;4.608;2024-02-23T09:37:47;6.60;99.90
23991;DHT22;12205;50.600;4.608;2024-02-23T09:40:15;6.80;99.90
23991;DHT22;12205;50.600;4.608;2024-02-23T09:42:42;6.90;99.90
23991;DHT22;12205;50.600;4.608;2024-02-23T09:45:11;7.10;99.90
23991;DHT22;12205;50.600;4.608;2024-02-23T09:47:38;7.00;99.90
23991;DHT22;12205;50.600;4.608;2024-02-23T09:50:05;6.80;99.90
23991;DHT22;12205;50.600;4.608;2024-02-23T09:52:33;6.90;99.90
23991;DHT22;12205;50.600;4.608;2024-02-23T09:55:01;6.30;99.90
23991;DHT22;12205;50.600;4.608;2024-02-23T09:57:29;6.00;99.90
23991;DHT22;12205;50.600;4.608;2024-02-23T09:59:56;6.00;99.90
23991;DHT22;12205;50.600;4.608;2024-02-23T10:02:23;5.90;99.90
23991;DHT22;12205;50.600;4.608;2024-02-23T10:04:51;5.90;99.90
23991;DHT22;12205;50.600;4.608;2024-02-23T10:07:20;5.70;99.90
23991;DHT22;12205;50.600;4.608;2024-02-23T10:09:47;5.90;99.90
23991;DHT22;12205;50.600;4.608;2024-02-23T10:12:17;5.90;99.90
23991;DHT22;12205;50.600;4.608;2024-02-23T10:14:44;6.00;99.90
23991;DHT22;12205;50.600;4.608;2024-02-23T10:17:10;5.90;99.90
23991;DHT22;12205;50.600;4.608;2024-02-23T10:19:37;5.90;99.90
23991;DHT22;12205;50.600;4.608;2024-02-23T10:22:04;6.00;99.90
23991;DHT22;12205;50.600;4.608;2024-02-23T10:24:31;6.20;99.90
23991;DHT22;12205;50.600;4.608;2024-02-23T10:27:00;6.10;99.90
23991;DHT22;12205;50.600;4.608;2024-02-23T10:29:30;6.30;99.90
23991;DHT22;12205;50.600;4.608;2024-02-23T10:31:57;6.30;99.90
23991;DHT22;12205;50.600;4.608;2024-02-23T10:34:27;6.40;99.90
23991;DHT22;12205;50.600;4.608;2024-02-23T10:36:55;6.30;99.90
23991;DHT22;12205;50.600;4.608;2024-02-23T10:39:24;6.40;99.90
23991;DHT22;12205;50.600;4.608;2024-02-23T10:41:56;6.60;99.90
23991;DHT22;12205;50.600;4.608;2024-02-23T10:44:24;6.70;99.90
23991;DHT22;12205;50.600;4.608;2024-02-23T10:46:55;6.60;99.90
23991;DHT22;12205;50.600;4.608;2024-02-23T10:49:24;6.40;99.90
23991;DHT22;12205;50.600;4.608;2024-02-23T10:51:53;6.20;99.90
23991;DHT22;12205;50.600;4.608;2024-02-23T10:54:20;6.20;99.90
23991;DHT22;12205;50.600;4.608;2024-02-23T10:56:49;6.30;99.90
23991;DHT22;12205;50.600;4.608;2024-02-23T10:59:16;6.40;99.90
23991;DHT22;12205;50.600;4.608;2024-02-23T11:01:47;6.40;99.90
23991;DHT22;12205;50.600;4.608;2024-02-23T11:04:17;6.40;99.90
23991;DHT22;12205;50.600;4.608;2024-02-23T11:06:49;6.40;99.90
23991;DHT22;12205;50.600;4.608;2024-02-23T11:09:16;6.40;99.90
23991;DHT22;12205;50.600;4.608;2024-02-23T11:11:52;6.40;99.90
23991;DHT22;12205;50.600;4.608;2024-02-23T11:14:29;6.60;99.90
23991;DHT22;12205;50.600;4.608;2024-02-23T11:16:57;6.80;99.90
23991;DHT22;12205;50.600;4.608;2024-02-23T11:19:33;6.90;99.90
23991;DHT22;12205;50.600;4.608;2024-02-23T11:22:01;7.10;99.90
23991;DHT22;12205;50.600;4.608;2024-02-23T11:24:29;7.30;99.90
23991;DHT22;12205;50.600;4.608;2024-02-23T11:26:59;7.70;99.90
23991;DHT22;12205;50.600;4.608;2024-02-23T11:29:34;7.70;99.90
23991;DHT22;12205;50.600;4.608;2024-02-23T11:32:02;8.00;99.90
23991;DHT22;12205;50.600;4.608;2024-02-23T11:34:30;7.90;99.90
23991;DHT22;12205;50.600;4.608;2024-02-23T11:37:07;8.10;99.90
23991;DHT22;12205;50.600;4.608;2024-02-23T11:39:37;8.10;99.90
23991;DHT22;12205;50.600;4.608;2024-02-23T11:42:04;8.10;99.90
23991;DHT22;12205;50.600;4.608;2024-02-23T11:44:32;7.80;99.90
23991;DHT22;12205;50.600;4.608;2024-02-23T11:46:59;8.10;99.90
23991;DHT22;12205;50.600;4.608;2024-02-23T11:49:27;8.20;99.90
23991;DHT22;12205;50.600;4.608;2024-02-23T11:51:55;8.40;99.90
23991;DHT22;12205;50.600;4.608;2024-02-23T11:54:24;8.80;99.90
23991;DHT22;12205;50.600;4.608;2024-02-23T11:56:51;8.90;99.90
23991;DHT22;12205;50.600;4.608;2024-02-23T11:59:18;8.70;99.90
23991;DHT22;12205;50.600;4.608;2024-02-23T12:01:46;9.00;99.90
23991;DHT22;12205;50.600;4.608;2024-02-23T12:04:14;9.20;99.90
23991;DHT22;12205;50.600;4.608;2024-02-23T12:06:42;9.30;99.90
23991;DHT22;12205;50.600;4.608;2024-02-23T12:09:09;9.00;99.90
23991;DHT22;12205;50.600;4.608;2024-02-23T12:11:38;9.10;99.90
23991;DHT22;12205;50.600;4.608;2024-02-23T12:14:05;8.40;99.90
23991;DHT22;12205;50.600;4.608;2024-02-23T12:16:33;8.50;99.90
23991;DHT22;12205;50.600;4.608;2024-02-23T12:19:01;8.70;99.90
23991;DHT22;12205;50.600;4.608;2024-02-23T12:21:28;9.00;99.90
23991;DHT22;12205;50.600;4.608;2024-02-23T12:23:55;9.00;99.90
23991;DHT22;12205;50.600;4.608;2024-02-23T12:26:22;9.20;99.90
23991;DHT22;12205;50.600;4.608;2024-02-23T12:28:51;9.00;99.90
23991;DHT22;12205;50.600;4.608;2024-02-23T12:31:24;8.80;99.90
23991;DHT22;12205;50.600;4.608;2024-02-23T12:33:52;8.50;99.90
23991;DHT22;12205;50.600;4.608;2024-02-23T12:36:19;8.40;99.90
23991;DHT22;12205;50.600;4.608;2024-02-23T12:38:46;8.30;99.90
23991;DHT22;12205;50.600;4.608;2024-02-23T12:41:12;8.30;99.90
23991;DHT22;12205;50.600;4.608;2024-02-23T12:43:39;8.50;99.90
23991;DHT22;12205;50.600;4.608;2024-02-23T12:46:07;8.80;99.90
23991;DHT22;12205;50.600;4.608;2024-02-23T12:48:35;8.70;99.90
23991;DHT22;12205;50.600;4.608;2024-02-23T12:51:02;8.40;99.90
23991;DHT22;12205;50.600;4.608;2024-02-23T12:53:34;8.30;99.90
23991;DHT22;12205;50.600;4.608;2024-02-23T12:56:02;8.40;99.90
23991;DHT22;12205;50.600;4.608;2024-02-23T12:58:29;9.30;99.90
23991;DHT22;12205;50.600;4.608;2024-02-23T13:00:56;9.50;99.90
23991;DHT22;12205;50.600;4.608;2024-02-23T13:03:25;10.20;99.90
23991;DHT22;12205;50.600;4.608;2024-02-23T13:05:52;10.70;99.90
23991;DHT22;12205;50.600;4.608;2024-02-23T13:08:19;9.60;99.90
23991;DHT22;12205;50.600;4.608;2024-02-23T13:10:46;9.20;99.90
23991;DHT22;12205;50.600;4.608;2024-02-23T13:13:13;9.00;99.90
23991;DHT22;12205;50.600;4.608;2024-02-23T13:15:41;9.00;99.90
23991;DHT22;12205;50.600;4.608;2024-02-23T13:18:08;9.00;99.90
23991;DHT22;12205;50.600;4.608;2024-02-23T13:20:37;8.80;99.90
23991;DHT22;12205;50.600;4.608;2024-02-23T13:23:04;8.30;99.90
23991;DHT22;12205;50.600;4.608;2024-02-23T13:25:33;8.20;99.90
23991;DHT22;12205;50.600;4.608;2024-02-23T13:27:59;8.10;99.90
23991;DHT22;12205;50.600;4.608;2024-02-23T13:30:26;8.40;99.90
23991;DHT22;12205;50.600;4.608;2024-02-23T13:32:53;8.60;99.90
23991;DHT22;12205;50.600;4.608;2024-02-23T13:35:20;8.60;99.90
23991;DHT22;12205;50.600;4.608;2024-02-23T13:37:48;8.80;99.90
23991;DHT22;12205;50.600;4.608;2024-02-23T13:40:16;8.60;99.90
23991;DHT22;12205;50.600;4.608;2024-02-23T13:42:42;8.70;99.90
23991;DHT22;12205;50.600;4.608;2024-02-23T13:45:11;8.50;99.90
23991;DHT22;12205;50.600;4.608;2024-02-23T13:47:40;8.80;99.90
23991;DHT22;12205;50.600;4.608;2024-02-23T13:50:08;8.90;99.90
23991;DHT22;12205;50.600;4.608;2024-02-23T13:52:35;8.80;99.90
23991;DHT22;12205;50.600;4.608;2024-02-23T13:55:04;8.80;99.90
23991;DHT22;12205;50.600;4.608;2024-02-23T13:57:31;8.80;99.90
23991;DHT22;12205;50.600;4.608;2024-02-23T14:00:00;8.90;99.90
23991;DHT22;12205;50.600;4.608;2024-02-23T14:02:27;9.00;99.90
23991;DHT22;12205;50.600;4.608;2024-02-23T14:05:01;9.30;99.90
23991;DHT22;12205;50.600;4.608;2024-02-23T14:07:29;9.50;99.90
23991;DHT22;12205;50.600;4.608;2024-02-23T14:09:56;9.20;99.90
23991;DHT22;12205;50.600;4.608;2024-02-23T14:12:24;9.10;99.90
23991;DHT22;12205;50.600;4.608;2024-02-23T14:14:51;9.00;99.90
23991;DHT22;12205;50.600;4.608;2024-02-23T14:17:18;8.90;99.90
23991;DHT22;12205;50.600;4.608;2024-02-23T14:19:45;9.00;99.90
23991;DHT22;12205;50.600;4.608;2024-02-23T14:22:12;9.30;99.90
23991;DHT22;12205;50.600;4.608;2024-02-23T14:24:39;9.50;99.90
23991;DHT22;12205;50.600;4.608;2024-02-23T14:27:06;10.80;99.90
23991;DHT22;12205;50.600;4.608;2024-02-23T14:29:35;13.20;99.90
23991;DHT22;12205;50.600;4.608;2024-02-23T14:32:02;15.40;99.90
23991;DHT22;12205;50.600;4.608;2024-02-23T14:34:30;17.00;99.90
23991;DHT22;12205;50.600;4.608;2024-02-23T14:36:59;16.40;99.90
23991;DHT22;12205;50.600;4.608;2024-02-23T14:39:25;16.70;99.90
23991;DHT22;12205;50.600;4.608;2024-02-23T14:41:52;16.70;99.90
23991;DHT22;12205;50.600;4.608;2024-02-23T14:44:19;14.40;99.90
23991;DHT22;12205;50.600;4.608;2024-02-23T14:46:48;12.60;99.90
23991;DHT22;12205;50.600;4.608;2024-02-23T14:49:15;11.20;99.90
23991;DHT22;12205;50.600;4.608;2024-02-23T14:51:42;12.40;99.90
23991;DHT22;12205;50.600;4.608;2024-02-23T14:54:11;13.60;99.90
23991;DHT22;12205;50.600;4.608;2024-02-23T14:56:38;13.00;99.90
23991;DHT22;12205;50.600;4.608;2024-02-23T14:59:06;12.40;99.90
23991;DHT22;12205;50.600;4.608;2024-02-23T15:01:35;11.40;99.90
23991;DHT22;12205;50.600;4.608;2024-02-23T15:04:04;11.30;99.90
23991;DHT22;12205;50.600;4.608;2024-02-23T15:06:31;10.80;99.90
23991;DHT22;12205;50.600;4.608;2024-02-23T15:08:58;10.20;99.90
23991;DHT22;12205;50.600;4.608;2024-02-23T15:11:25;10.00;99.90
23991;DHT22;12205;50.600;4.608;2024-02-23T15:13:52;10.00;99.90
23991;DHT22;12205;50.600;4.608;2024-02-23T15:16:23;9.90;99.90
23991;DHT22;12205;50.600;4.608;2024-02-23T15:18:50;9.50;99.90
23991;DHT22;12205;50.600;4.608;2024-02-23T15:21:19;8.80;99.90
23991;DHT22;12205;50.600;4.608;2024-02-23T15:23:46;9.10;99.90
23991;DHT22;12205;50.600;4.608;2024-02-23T15:26:13;9.70;99.90
23991;DHT22;12205;50.600;4.608;2024-02-23T15:28:40;11.20;99.90
23991;DHT22;12205;50.600;4.608;2024-02-23T15:31:07;11.40;99.90
23991;DHT22;12205;50.600;4.608;2024-02-23T15:33:34;11.50;99.90
23991;DHT22;12205;50.600;4.608;2024-02-23T15:36:05;11.60;99.90
23991;DHT22;12205;50.600;4.608;2024-02-23T15:38:35;11.60;99.90
23991;DHT22;12205;50.600;4.608;2024-02-23T15:41:02;11.70;99.90
23991;DHT22;12205;50.600;4.608;2024-02-23T15:43:29;12.00;99.90
23991;DHT22;12205;50.600;4.608;2024-02-23T15:45:56;12.40;99.90